Time,TemperatureF,DewpointF,PressureIn,WindDirection,WindDirectionDegrees,WindSpeedMPH,WindSpeedGustMPH,Humidity,HourlyPrecipIn,Conditions,Clouds,dailyrainin,SoftwareType,DateUTC
2013-02-28 00:01:00,37.0,0.0,30.12,South,180,1.0,5.0,20,0.00,,,0.00,,2013-02-28 08:01:00,
2013-02-28 00:11:00,37.0,0.0,30.12,South,180,1.0,5.0,20,0.00,,,0.00,,2013-02-28 08:11:00,
2013-02-28 00:21:00,36.0,-1.0,30.12,South,180,2.0,3.0,20,0.00,,,0.00,,2013-02-28 08:21:00,
2013-02-28 00:31:00,36.0,-1.0,30.12,South,180,4.0,5.0,20,0.00,,,0.00,,2013-02-28 08:31:00,
2013-02-28 00:41:00,36.0,-1.0,30.12,South,180,4.0,5.0,20,0.00,,,0.00,,2013-02-28 08:41:00,
2013-02-28 00:52:00,37.0,0.0,30.12,South,180,3.0,3.0,20,0.00,,,0.00,,2013-02-28 08:52:00,
2013-02-28 01:02:00,37.0,0.0,30.12,South,180,3.0,5.0,20,0.00,,,0.00,,2013-02-28 09:02:00,
2013-02-28 01:11:00,37.0,0.0,30.12,South,180,3.0,5.0,20,0.00,,,0.00,,2013-02-28 09:11:00,
2013-02-28 01:21:00,37.0,0.0,30.12,South,180,3.0,5.0,20,0.00,,,0.00,,2013-02-28 09:21:00,
2013-02-28 01:31:00,37.0,0.0,30.12,South,180,3.0,5.0,20,0.00,,,0.00,,2013-02-28 09:31:00,
2013-02-28 01:41:00,37.0,0.0,30.12,South,180,3.0,5.0,20,0.00,,,0.00,,2013-02-28 09:41:00,
2013-02-28 01:52:00,36.0,-1.0,30.12,South,180,3.0,5.0,20,0.00,,,0.00,,2013-02-28 09:52:00,
2013-02-28 02:01:00,35.0,-1.0,30.09,South,180,5.0,6.0,21,0.00,,,0.00,,2013-02-28 10:01:00,
2013-02-28 02:11:00,35.0,-1.0,30.09,South,180,5.0,6.0,21,0.00,,,0.00,,2013-02-28 10:11:00,
2013-02-28 02:21:00,35.0,-1.0,30.09,South,180,5.0,6.0,21,0.00,,,0.00,,2013-02-28 10:21:00,
2013-02-28 02:31:00,35.0,-1.0,30.09,South,180,3.0,6.0,21,0.00,,,0.00,,2013-02-28 10:31:00,
2013-02-28 02:41:00,35.0,-1.0,30.09,South,180,3.0,6.0,21,0.00,,,0.00,,2013-02-28 10:41:00,
2013-02-28 02:52:00,34.0,-2.0,30.09,South,180,3.0,5.0,21,0.00,,,0.00,,2013-02-28 10:52:00,
2013-02-28 03:01:00,33.0,-3.0,30.06,South,180,0.0,0.0,21,0.00,,,0.00,,2013-02-28 11:01:00,
2013-02-28 03:11:00,33.0,-3.0,30.06,South,180,0.0,0.0,21,0.00,,,0.00,,2013-02-28 11:11:00,
2013-02-28 03:21:00,32.0,-3.0,30.06,South,180,2.0,5.0,21,0.00,,,0.00,,2013-02-28 11:21:00,
2013-02-28 03:31:00,30.0,-5.0,30.06,South,180,0.0,0.0,21,0.00,,,0.00,,2013-02-28 11:31:00,
2013-02-28 03:41:00,30.0,-5.0,30.06,South,180,0.0,0.0,21,0.00,,,0.00,,2013-02-28 11:41:00,
2013-02-28 03:52:00,32.0,-3.0,30.06,South,180,0.0,0.0,21,0.00,,,0.00,,2013-02-28 11:52:00,
2013-02-28 04:01:00,33.0,-3.0,30.06,South,180,3.0,5.0,21,0.00,,,0.00,,2013-02-28 12:01:00,
2013-02-28 04:11:00,33.0,-3.0,30.06,South,180,3.0,5.0,21,0.00,,,0.00,,2013-02-28 12:11:00,
2013-02-28 04:21:00,33.0,-3.0,30.06,South,180,1.0,3.0,21,0.00,,,0.00,,2013-02-28 12:21:00,
2013-02-28 04:31:00,32.0,-3.0,30.06,South,180,3.0,5.0,21,0.00,,,0.00,,2013-02-28 12:31:00,
2013-02-28 04:42:00,32.0,-3.0,30.06,South,180,3.0,5.0,21,0.00,,,0.00,,2013-02-28 12:42:00,
2013-02-28 04:52:00,31.0,-4.0,30.06,South,180,4.0,5.0,21,0.00,,,0.00,,2013-02-28 12:52:00,
2013-02-28 05:01:00,32.0,-3.0,30.06,South,180,3.0,3.0,21,0.00,,,0.00,,2013-02-28 13:01:00,
2013-02-28 05:11:00,30.0,-5.0,30.06,South,180,0.0,0.0,21,0.00,,,0.00,,2013-02-28 13:11:00,
2013-02-28 05:31:00,31.0,-4.0,30.09,South,180,0.0,0.0,21,0.00,,,0.00,,2013-02-28 13:31:00,
2013-02-28 06:01:00,31.0,-4.0,30.09,South,180,5.0,6.0,21,0.00,,,0.00,,2013-02-28 14:01:00,
2013-02-28 06:11:00,30.0,-5.0,30.09,South,180,3.0,5.0,21,0.00,,,0.00,,2013-02-28 14:11:00,
2013-02-28 06:31:00,29.0,-6.0,30.09,South,180,2.0,3.0,21,0.00,,,0.00,,2013-02-28 14:31:00,
2013-02-28 06:41:00,30.0,-5.0,30.09,South,180,0.0,0.0,21,0.00,,,0.00,,2013-02-28 14:41:00,
2013-02-28 07:01:00,33.0,-3.0,30.12,South,180,0.0,0.0,21,0.00,,,0.00,,2013-02-28 15:01:00,
2013-02-28 07:11:00,35.0,-1.0,30.12,South,180,0.0,2.0,21,0.00,,,0.00,,2013-02-28 15:11:00,
2013-02-28 07:21:00,35.0,-1.0,30.12,South,180,0.0,2.0,21,0.00,,,0.00,,2013-02-28 15:21:00,
2013-02-28 07:31:00,39.0,0.0,30.12,South,180,0.0,0.0,19,0.00,,,0.00,,2013-02-28 15:31:00,
2013-02-28 07:41:00,39.0,0.0,30.12,South,180,0.0,0.0,19,0.00,,,0.00,,2013-02-28 15:41:00,
2013-02-28 07:52:00,41.0,2.0,30.12,South,180,0.0,3.0,19,0.00,,,0.00,,2013-02-28 15:52:00,
2013-02-28 08:01:00,43.0,4.0,30.12,South,180,1.0,5.0,19,0.00,,,0.00,,2013-02-28 16:01:00,
2013-02-28 08:11:00,36.0,-1.0,30.09,WNW,296,6.0,8.0,20,0.00,,,0.00,,2013-02-28 16:11:00,
2013-02-28 08:21:00,36.0,-1.0,30.09,WNW,296,6.0,8.0,20,0.00,,,0.00,,2013-02-28 16:21:00,
2013-02-28 08:31:00,36.0,-1.0,30.15,West,266,6.0,8.0,20,0.00,,,0.00,,2013-02-28 16:31:00,
2013-02-28 08:41:00,36.0,-1.0,30.15,West,266,6.0,8.0,20,0.00,,,0.00,,2013-02-28 16:41:00,
2013-02-28 08:52:00,42.0,3.0,30.12,WSW,248,4.0,6.0,19,0.00,,,0.00,,2013-02-28 16:52:00,
2013-02-28 09:01:00,47.0,8.0,30.15,WSW,248,3.0,5.0,20,0.00,,,0.00,,2013-02-28 17:01:00,
2013-02-28 09:11:00,50.0,11.0,30.15,WSW,248,3.0,5.0,20,0.00,,,0.00,,2013-02-28 17:11:00,
2013-02-28 09:21:00,50.0,11.0,30.15,WSW,248,3.0,5.0,20,0.00,,,0.00,,2013-02-28 17:21:00,
2013-02-28 09:31:00,52.0,11.0,30.15,West,270,3.0,5.0,19,0.00,,,0.00,,2013-02-28 17:31:00,
2013-02-28 09:41:00,52.0,11.0,30.15,West,270,3.0,5.0,19,0.00,,,0.00,,2013-02-28 17:41:00,
2013-02-28 09:52:00,54.0,13.0,30.15,West,270,3.0,5.0,19,0.00,,,0.00,,2013-02-28 17:52:00,
2013-02-28 10:01:00,56.0,13.0,30.15,West,270,0.0,3.0,18,0.00,,,0.00,,2013-02-28 18:01:00,
2013-02-28 10:11:00,58.0,15.0,30.15,West,270,2.0,8.0,18,0.00,,,0.00,,2013-02-28 18:11:00,
2013-02-28 10:21:00,58.0,15.0,30.15,West,270,2.0,8.0,18,0.00,,,0.00,,2013-02-28 18:21:00,
2013-02-28 10:31:00,57.0,14.0,30.15,West,270,6.0,7.0,18,0.00,,,0.00,,2013-02-28 18:31:00,
2013-02-28 10:41:00,59.0,16.0,30.15,West,270,5.0,6.0,18,0.00,,,0.00,,2013-02-28 18:41:00,
2013-02-28 10:52:00,59.0,16.0,30.15,West,270,5.0,6.0,18,0.00,,,0.00,,2013-02-28 18:52:00,
2013-02-28 11:01:00,61.0,17.0,30.15,North,0,1.0,6.0,18,0.00,,,0.00,,2013-02-28 19:01:00,
2013-02-28 11:11:00,61.0,16.0,30.15,NE,45,5.0,6.0,17,0.00,,,0.00,,2013-02-28 19:11:00,
2013-02-28 11:21:00,61.0,16.0,30.15,NE,45,5.0,6.0,17,0.00,,,0.00,,2013-02-28 19:21:00,
2013-02-28 11:31:00,62.0,17.0,30.18,NE,45,3.0,6.0,17,0.00,,,0.00,,2013-02-28 19:31:00,
2013-02-28 11:52:00,63.0,18.0,30.18,North,10,4.0,6.0,17,0.00,,,0.00,,2013-02-28 19:52:00,
2013-02-28 12:01:00,63.0,18.0,30.18,North,6,5.0,8.0,17,0.00,,,0.00,,2013-02-28 20:01:00,
2013-02-28 12:11:00,63.0,18.0,30.18,NE,45,5.0,7.0,17,0.00,,,0.00,,2013-02-28 20:11:00,
2013-02-28 12:31:00,64.0,18.0,30.15,East,90,5.0,13.0,17,0.00,,,0.00,,2013-02-28 20:31:00,
2013-02-28 12:52:00,67.0,19.0,30.15,ENE,68,0.0,3.0,16,0.00,,,0.00,,2013-02-28 20:52:00,
2013-02-28 13:01:00,66.0,19.0,30.15,NE,45,4.0,8.0,16,0.00,,,0.00,,2013-02-28 21:01:00,
2013-02-28 13:22:00,66.0,19.0,30.15,East,90,3.0,8.0,16,0.00,,,0.00,,2013-02-28 21:22:00,
2013-02-28 13:31:00,66.0,19.0,30.15,East,90,3.0,12.0,16,0.00,,,0.00,,2013-02-28 21:31:00,
2013-02-28 14:01:00,66.0,19.0,30.15,East,90,6.0,8.0,16,0.00,,,0.00,,2013-02-28 22:01:00,
2013-02-28 14:11:00,67.0,19.0,30.15,East,80,6.0,10.0,16,0.00,,,0.00,,2013-02-28 22:11:00,
2013-02-28 14:21:00,67.0,19.0,30.15,East,80,6.0,10.0,16,0.00,,,0.00,,2013-02-28 22:21:00,
2013-02-28 14:31:00,67.0,19.0,30.15,ENE,69,0.0,7.0,16,0.00,,,0.00,,2013-02-28 22:31:00,
2013-02-28 15:01:00,67.0,19.0,30.15,East,90,6.0,9.0,16,0.00,,,0.00,,2013-02-28 23:01:00,
2013-02-28 15:11:00,68.0,20.0,30.15,East,90,3.0,6.0,16,0.00,,,0.00,,2013-02-28 23:11:00,
2013-02-28 15:31:00,69.0,21.0,30.15,ESE,112,2.0,5.0,16,0.00,,,0.00,,2013-02-28 23:31:00,
2013-02-28 15:52:00,68.0,20.0,30.12,ESE,112,2.0,9.0,16,0.00,,,0.00,,2013-02-28 23:52:00,
2013-02-28 16:01:00,66.0,19.0,30.15,East,90,7.0,8.0,16,0.00,,,0.00,,2013-03-01 00:01:00,
2013-02-28 16:22:00,65.0,18.0,30.15,East,90,6.0,8.0,16,0.00,,,0.00,,2013-03-01 00:22:00,
2013-02-28 16:32:00,66.0,19.0,30.15,East,81,5.0,6.0,16,0.00,,,0.00,,2013-03-01 00:32:00,
2013-02-28 16:52:00,65.0,18.0,30.15,East,90,7.0,9.0,16,0.00,,,0.00,,2013-03-01 00:52:00,
2013-02-28 17:01:00,66.0,19.0,30.15,SE,133,1.0,5.0,16,0.00,,,0.00,,2013-03-01 01:01:00,
2013-02-28 17:11:00,64.0,18.0,30.12,East,90,7.0,9.0,17,0.00,,,0.00,,2013-03-01 01:11:00,
2013-02-28 17:31:00,63.0,18.0,30.15,East,90,6.0,7.0,17,0.00,,,0.00,,2013-03-01 01:31:00,
2013-02-28 17:52:00,61.0,16.0,30.15,East,90,5.0,6.0,17,0.00,,,0.00,,2013-03-01 01:52:00,
2013-02-28 18:01:00,59.0,16.0,30.15,East,97,3.0,6.0,18,0.00,,,0.00,,2013-03-01 02:01:00,
2013-02-28 18:11:00,56.0,13.0,30.15,ESE,112,0.0,5.0,18,0.00,,,0.00,,2013-03-01 02:11:00,
2013-02-28 18:21:00,56.0,13.0,30.15,ESE,112,0.0,5.0,18,0.00,,,0.00,,2013-03-01 02:21:00,
2013-02-28 18:31:00,54.0,13.0,30.15,ESE,112,0.0,2.0,19,0.00,,,0.00,,2013-03-01 02:31:00,
2013-02-28 18:52:00,54.0,13.0,30.15,SE,135,2.0,3.0,19,0.00,,,0.00,,2013-03-01 02:52:00,
2013-02-28 19:01:00,53.0,12.0,30.15,SE,135,2.0,3.0,19,0.00,,,0.00,,2013-03-01 03:01:00,
2013-02-28 19:11:00,52.0,11.0,30.15,SE,135,0.0,2.0,19,0.00,,,0.00,,2013-03-01 03:11:00,
2013-02-28 19:21:00,52.0,11.0,30.15,SE,135,0.0,2.0,19,0.00,,,0.00,,2013-03-01 03:21:00,
2013-02-28 19:31:00,50.0,11.0,30.15,SE,135,0.0,0.0,20,0.00,,,0.00,,2013-03-01 03:31:00,
2013-02-28 19:41:00,50.0,11.0,30.15,SE,135,0.0,0.0,20,0.00,,,0.00,,2013-03-01 03:41:00,
2013-02-28 19:52:00,49.0,6.0,30.15,SE,135,0.0,3.0,17,0.00,,,0.00,,2013-03-01 03:52:00,
2013-02-28 20:01:00,48.0,5.0,30.15,SE,135,2.0,5.0,17,0.00,,,0.00,,2013-03-01 04:01:00,
2013-02-28 20:11:00,48.0,5.0,30.18,SE,135,3.0,5.0,17,0.00,,,0.00,,2013-03-01 04:11:00,
2013-02-28 20:21:00,48.0,5.0,30.18,SE,135,3.0,5.0,17,0.00,,,0.00,,2013-03-01 04:21:00,
2013-02-28 20:31:00,50.0,7.0,30.18,South,180,4.0,6.0,17,0.00,,,0.00,,2013-03-01 04:31:00,
2013-02-28 20:41:00,50.0,7.0,30.18,South,180,4.0,6.0,17,0.00,,,0.00,,2013-03-01 04:41:00,
2013-02-28 20:52:00,51.0,11.0,30.18,SSE,158,2.0,3.0,20,0.00,,,0.00,,2013-03-01 04:52:00,
2013-02-28 21:01:00,51.0,11.0,30.15,SSE,158,3.0,6.0,20,0.00,,,0.00,,2013-03-01 05:01:00,
2013-02-28 21:11:00,51.0,11.0,30.15,SSE,158,3.0,6.0,20,0.00,,,0.00,,2013-03-01 05:11:00,
2013-02-28 21:22:00,49.0,9.0,30.15,SSE,158,3.0,5.0,19,0.00,,,0.00,,2013-03-01 05:22:00,
2013-02-28 21:32:00,48.0,7.0,30.18,SSE,158,0.0,0.0,18,0.00,,,0.00,,2013-03-01 05:32:00,
2013-02-28 21:41:00,48.0,7.0,30.18,SSE,158,0.0,0.0,18,0.00,,,0.00,,2013-03-01 05:41:00,
2013-02-28 21:52:00,45.0,4.0,30.15,SSE,158,0.0,0.0,18,0.00,,,0.00,,2013-03-01 05:52:00,
2013-02-28 22:01:00,44.0,4.0,30.15,SSE,158,0.0,0.0,19,0.00,,,0.00,,2013-03-01 06:01:00,
2013-02-28 22:11:00,43.0,4.0,30.15,SSE,158,0.0,0.0,19,0.00,,,0.00,,2013-03-01 06:11:00,
2013-02-28 22:21:00,43.0,4.0,30.15,SSE,158,0.0,0.0,19,0.00,,,0.00,,2013-03-01 06:21:00,
2013-02-28 22:31:00,43.0,4.0,30.15,SSE,158,0.0,0.0,19,0.00,,,0.00,,2013-03-01 06:31:00,
2013-02-28 22:41:00,43.0,4.0,30.15,SSE,158,0.0,0.0,19,0.00,,,0.00,,2013-03-01 06:41:00,
2013-02-28 22:52:00,46.0,5.0,30.15,South,180,0.0,2.0,18,0.00,,,0.00,,2013-03-01 06:52:00,
2013-02-28 23:01:00,45.0,5.0,30.15,South,180,0.0,0.0,19,0.00,,,0.00,,2013-03-01 07:01:00,
2013-02-28 23:11:00,45.0,5.0,30.15,South,180,0.0,0.0,19,0.00,,,0.00,,2013-03-01 07:11:00,
2013-02-28 23:21:00,44.0,4.0,30.15,South,180,0.0,0.0,19,0.00,,,0.00,,2013-03-01 07:21:00,
2013-02-28 23:31:00,45.0,4.0,30.15,South,180,0.0,0.0,18,0.00,,,0.00,,2013-03-01 07:31:00,
2013-02-28 23:41:00,45.0,4.0,30.15,South,180,0.0,0.0,18,0.00,,,0.00,,2013-03-01 07:41:00,
2013-02-28 23:52:00,45.0,4.0,30.15,South,180,0.0,0.0,18,0.00,,,0.00,,2013-03-01 07:52:00,